createdAt,value
2023-01-11T00:00:46.864Z,0.52
2023-01-11T00:03:15.203Z,0.50
2023-01-11T00:05:44.835Z,0.63
2023-01-11T00:08:13.694Z,0.17
2023-01-11T00:10:41.923Z,0.57
2023-01-11T00:13:11.605Z,0.40
2023-01-11T00:15:40.707Z,0.43
2023-01-11T00:18:09.396Z,0.28
2023-01-11T00:20:40.706Z,0.57
2023-01-11T00:23:09.299Z,0.52
2023-01-11T00:25:37.966Z,0.70
2023-01-11T00:28:07.368Z,0.75
2023-01-11T00:30:37.217Z,0.60
2023-01-11T00:33:05.769Z,0.20
2023-01-11T00:35:34.033Z,0.20
2023-01-11T00:38:02.200Z,0.63
2023-01-11T00:40:30.686Z,0.47
2023-01-11T00:43:16.246Z,0.63
2023-01-11T00:46:02.945Z,1.00
2023-01-11T00:48:31.193Z,0.63
2023-01-11T00:50:59.478Z,0.40
2023-01-11T00:53:27.738Z,0.40
2023-01-11T00:55:56.042Z,0.63
2023-01-11T00:58:24.254Z,0.25
2023-01-11T01:00:53.767Z,0.57
2023-01-11T01:03:21.924Z,0.50
2023-01-11T01:05:50.080Z,0.52
2023-01-11T01:08:18.342Z,0.90
2023-01-11T01:10:46.489Z,0.40
2023-01-11T01:13:32.131Z,0.98
2023-01-11T01:16:01.621Z,0.55
2023-01-11T01:18:29.953Z,0.25
2023-01-11T01:20:58.227Z,0.63
2023-01-11T01:23:26.400Z,0.63
2023-01-11T01:25:54.567Z,0.57
2023-01-11T01:28:23.076Z,0.60
2023-01-11T01:30:52.490Z,0.52
2023-01-11T01:33:21.980Z,0.88
2023-01-11T01:35:50.187Z,0.70
2023-01-11T01:38:18.333Z,0.43
2023-01-11T01:40:48.546Z,0.60
2023-01-11T01:43:18.476Z,0.65
2023-01-11T01:45:50.127Z,0.30
2023-01-11T01:48:25.408Z,0.32
2023-01-11T01:50:56.847Z,0.43
2023-01-11T01:53:28.752Z,0.32
2023-01-11T01:56:01.951Z,1.50
2023-01-11T01:58:34.715Z,0.10
2023-01-11T02:01:24.011Z,0.20
2023-01-11T02:03:54.327Z,0.45
2023-01-11T02:06:24.606Z,0.35
2023-01-11T02:08:59.550Z,0.40
2023-01-11T02:11:33.818Z,0.60
2023-01-11T02:14:05.091Z,0.82
2023-01-11T02:16:33.694Z,0.20
2023-01-11T02:19:03.417Z,0.60
2023-01-11T02:21:47.528Z,0.40
2023-01-11T02:24:46.499Z,0.52
2023-01-11T02:27:27.889Z,0.47
2023-01-11T02:30:10.401Z,0.57
2023-01-11T02:32:53.933Z,0.50
2023-01-11T02:35:36.381Z,0.20
2023-01-11T02:38:11.817Z,0.35
2023-01-11T02:40:51.997Z,0.50
2023-01-11T02:43:45.876Z,0.65
2023-01-11T02:46:22.332Z,0.20
2023-01-11T02:48:57.476Z,0.40
2023-01-11T02:51:29.583Z,0.38
2023-01-11T02:54:03.865Z,0.77
2023-01-11T02:56:35.311Z,0.55
2023-01-11T02:59:05.377Z,0.43
2023-01-11T03:01:44.448Z,0.40
2023-01-11T03:04:24.313Z,0.35
2023-01-11T03:07:00.218Z,0.70
2023-01-11T03:09:38.051Z,0.20
2023-01-11T03:12:41.551Z,0.45
2023-01-11T03:15:25.364Z,0.22
2023-01-11T03:18:07.635Z,0.40
2023-01-11T03:20:40.159Z,0.60
2023-01-11T03:23:17.174Z,0.38
2023-01-11T03:25:57.170Z,0.90
2023-01-11T03:28:33.557Z,0.47
2023-01-11T03:31:06.163Z,1.38
2023-01-11T03:33:43.279Z,0.95
2023-01-11T03:36:19.849Z,0.55
2023-01-11T03:38:52.714Z,0.73
2023-01-11T03:41:25.583Z,0.43
2023-01-11T03:43:57.282Z,0.70
2023-01-11T03:46:30.103Z,1.25
2023-01-11T03:49:05.123Z,0.90
2023-01-11T03:51:38.723Z,0.30
2023-01-11T03:54:09.824Z,0.95
2023-01-11T03:56:45.407Z,0.80
2023-01-11T03:59:14.266Z,0.52
2023-01-11T04:01:42.326Z,0.68
2023-01-11T04:04:11.904Z,0.57
2023-01-11T04:06:40.258Z,0.77
2023-01-11T04:09:08.625Z,0.68
2023-01-11T04:11:36.789Z,0.80
2023-01-11T04:14:05.010Z,0.80
2023-01-11T04:16:33.080Z,0.60
2023-01-11T04:19:02.986Z,1.13
2023-01-11T04:21:32.528Z,0.68
2023-01-11T04:24:00.857Z,0.35
2023-01-11T04:26:29.032Z,0.73
2023-01-11T04:28:57.316Z,1.08
2023-01-11T04:31:25.633Z,0.95
2023-01-11T04:33:53.825Z,0.57
2023-01-11T04:36:22.102Z,0.43
2023-01-11T04:38:51.727Z,0.68
2023-01-11T04:41:37.481Z,0.45
2023-01-11T04:44:05.754Z,0.57
2023-01-11T04:46:34.042Z,1.02
2023-01-11T04:49:02.227Z,1.02
2023-01-11T04:51:30.391Z,1.08
2023-01-11T04:53:59.929Z,0.82
2023-01-11T04:56:29.297Z,0.68
2023-01-11T04:58:57.515Z,0.80
2023-01-11T05:01:25.657Z,0.85
2023-01-11T05:03:54.435Z,0.98
2023-01-11T05:06:23.268Z,0.90
2023-01-11T05:08:51.621Z,0.93
2023-01-11T05:11:21.092Z,0.82
2023-01-11T05:13:49.409Z,0.57
2023-01-11T05:16:20.318Z,0.90
2023-01-11T05:18:50.553Z,1.02
2023-01-11T05:21:21.055Z,0.95
2023-01-11T05:23:49.689Z,0.80
2023-01-11T05:26:22.903Z,0.40
2023-01-11T05:28:51.852Z,0.47
2023-01-11T05:31:20.428Z,0.95
2023-01-11T05:33:49.185Z,1.15
2023-01-11T05:36:19.192Z,0.77
2023-01-11T05:38:48.706Z,0.90
2023-01-11T05:41:18.705Z,0.40
2023-01-11T05:44:07.626Z,0.93
2023-01-11T05:46:37.382Z,0.88
2023-01-11T05:49:08.315Z,0.95
2023-01-11T05:51:38.206Z,0.75
2023-01-11T05:54:08.652Z,0.82
2023-01-11T05:56:36.877Z,0.85
2023-01-11T05:59:07.205Z,0.63
2023-01-11T06:01:35.923Z,0.47
2023-01-11T06:04:04.343Z,0.60
2023-01-11T06:06:33.297Z,0.60
2023-01-11T06:09:01.446Z,0.82
2023-01-11T06:11:29.696Z,0.60
2023-01-11T06:13:57.988Z,0.68
2023-01-11T06:16:27.571Z,0.45
2023-01-11T06:18:55.957Z,0.40
2023-01-11T06:21:25.157Z,0.43
2023-01-11T06:23:53.363Z,0.93
2023-01-11T06:26:22.905Z,0.47
2023-01-11T06:28:51.727Z,0.55
2023-01-11T06:31:20.856Z,0.65
2023-01-11T06:33:50.543Z,0.82
2023-01-11T06:36:18.877Z,0.45
2023-01-11T06:38:47.265Z,0.75
2023-01-11T06:41:16.037Z,0.80
2023-01-11T06:43:44.244Z,0.45
2023-01-11T06:46:14.166Z,0.55
2023-01-11T06:48:42.832Z,0.35
2023-01-11T06:51:12.883Z,0.63
2023-01-11T06:53:42.451Z,0.70
2023-01-11T06:56:14.314Z,0.57
2023-01-11T06:58:43.557Z,0.38
2023-01-11T07:01:13.357Z,0.45
2023-01-11T07:03:41.762Z,0.35
2023-01-11T07:06:10.032Z,0.57
2023-01-11T07:08:39.479Z,0.80
2023-01-11T07:11:07.956Z,0.80
2023-01-11T07:13:36.113Z,0.75
2023-01-11T07:16:04.518Z,0.82
2023-01-11T07:18:33.505Z,0.40
2023-01-11T07:21:02.514Z,0.10
2023-01-11T07:23:30.712Z,0.80
2023-01-11T07:26:00.481Z,0.93
2023-01-11T07:28:30.646Z,1.05
2023-01-11T07:31:00.032Z,0.65
2023-01-11T07:33:28.859Z,0.55
2023-01-11T07:35:58.259Z,0.57
2023-01-11T07:38:26.513Z,0.25
2023-01-11T07:40:54.799Z,0.13
2023-01-11T07:43:23.802Z,0.45
2023-01-11T07:45:54.195Z,0.73
2023-01-11T07:48:26.804Z,1.10
2023-01-11T07:50:55.772Z,0.63
2023-01-11T07:53:26.071Z,0.52
2023-01-11T07:55:55.940Z,0.68
2023-01-11T07:58:25.452Z,0.40
2023-01-11T08:00:53.747Z,0.80
2023-01-11T08:03:22.093Z,0.52
2023-01-11T08:05:52.614Z,0.60
2023-01-11T08:08:21.017Z,0.70
2023-01-11T08:11:11.039Z,0.43
2023-01-11T08:13:58.273Z,0.55
2023-01-11T08:16:27.517Z,0.57
2023-01-11T08:18:55.764Z,0.60
2023-01-11T08:21:24.063Z,0.60
2023-01-11T08:23:54.419Z,0.47
2023-01-11T08:26:23.713Z,0.47
2023-01-11T08:28:53.588Z,0.28
2023-01-11T08:31:22.505Z,1.38
2023-01-11T08:33:50.825Z,0.65
2023-01-11T08:36:19.205Z,0.60
2023-01-11T08:38:48.154Z,0.10
2023-01-11T08:41:16.810Z,0.03
2023-01-11T08:43:45.331Z,0.45
2023-01-11T08:46:14.942Z,0.45
2023-01-11T08:48:43.433Z,0.47
2023-01-11T08:51:11.984Z,0.57
2023-01-11T08:53:40.172Z,0.50
2023-01-11T08:56:09.104Z,0.63
2023-01-11T08:58:37.574Z,1.08
2023-01-11T09:01:09.226Z,0.82
2023-01-11T09:03:38.670Z,0.70
2023-01-11T09:06:07.200Z,1.33
2023-01-11T09:08:35.468Z,0.68
2023-01-11T09:11:23.582Z,0.50
2023-01-11T09:13:52.284Z,0.15
2023-01-11T09:16:20.448Z,1.33
2023-01-11T09:18:50.116Z,0.45
2023-01-11T09:21:19.881Z,0.57
2023-01-11T09:23:48.131Z,0.68
2023-01-11T09:26:16.986Z,0.30
2023-01-11T09:28:45.148Z,0.65
2023-01-11T09:31:13.361Z,0.28
2023-01-11T09:33:41.570Z,0.65
2023-01-11T09:36:11.979Z,0.63
2023-01-11T09:38:41.073Z,0.28
2023-01-11T09:41:26.922Z,0.32
2023-01-11T09:44:04.711Z,0.35
2023-01-11T09:46:36.206Z,0.98
2023-01-11T09:49:06.685Z,0.40
2023-01-11T09:51:39.692Z,0.68
2023-01-11T09:54:10.750Z,0.68
2023-01-11T09:56:47.485Z,0.15
2023-01-11T09:59:24.829Z,0.57
2023-01-11T10:02:01.620Z,0.22
2023-01-11T10:04:55.372Z,0.73
2023-01-11T10:07:43.364Z,0.65
2023-01-11T10:18:33.153Z,0.10
2023-01-11T10:19:40.841Z,0.45
2023-01-11T10:22:15.816Z,0.25
2023-01-11T10:24:49.076Z,0.38
2023-01-11T10:27:23.100Z,0.40
2023-01-11T10:30:09.102Z,0.38
2023-01-11T10:33:05.940Z,0.70
2023-01-11T10:35:59.101Z,0.32
2023-01-11T10:38:43.709Z,0.28
2023-01-11T10:41:26.515Z,0.20
2023-01-11T10:44:05.227Z,0.60
2023-01-11T10:46:39.975Z,1.20
2023-01-11T10:49:30.325Z,0.55
2023-01-11T10:52:06.168Z,0.40
2023-01-11T10:54:37.517Z,0.38
2023-01-11T10:57:18.287Z,0.68
2023-01-11T11:00:04.676Z,0.47
2023-01-11T11:02:56.094Z,0.77
2023-01-11T11:05:35.234Z,0.50
2023-01-11T11:08:13.877Z,0.55
2023-01-11T11:10:54.459Z,0.50
2023-01-11T11:13:34.939Z,0.30
2023-01-11T11:16:12.701Z,0.45
2023-01-11T11:18:41.145Z,0.57
2023-01-11T11:21:25.192Z,0.80
2023-01-11T11:26:30.452Z,0.68
2023-01-11T11:31:32.829Z,0.30
2023-01-11T11:34:07.271Z,0.50
2023-01-11T11:36:54.885Z,0.60
2023-01-11T11:39:28.394Z,1.20
2023-01-11T11:41:58.414Z,0.68
2023-01-11T11:44:29.745Z,0.80
2023-01-11T11:46:59.557Z,0.55
2023-01-11T11:49:28.551Z,0.93
2023-01-11T11:51:57.243Z,0.50
2023-01-11T11:54:30.628Z,0.45
2023-01-11T11:57:01.878Z,0.20
2023-01-11T11:59:33.397Z,0.38
2023-01-11T12:02:04.767Z,0.52
2023-01-11T12:04:47.164Z,0.30
2023-01-11T12:07:17.454Z,0.25
2023-01-11T12:09:49.251Z,0.98
2023-01-11T12:12:20.295Z,0.65
2023-01-11T12:15:09.972Z,0.17
2023-01-11T12:17:38.413Z,0.70
2023-01-11T12:20:28.918Z,0.10
2023-01-11T12:23:14.086Z,0.17
2023-01-11T12:25:54.756Z,0.40
2023-01-11T12:28:34.123Z,0.43
2023-01-11T12:31:12.098Z,0.68
2023-01-11T12:33:47.901Z,0.85
2023-01-11T12:36:25.696Z,0.43
2023-01-11T12:39:07.936Z,0.35
2023-01-11T12:41:54.044Z,0.75
2023-01-11T12:44:35.389Z,0.52
2023-01-11T12:47:20.919Z,0.60
2023-01-11T12:50:00.663Z,0.30
2023-01-11T12:52:47.454Z,0.30
2023-01-11T12:55:30.214Z,0.57
2023-01-11T12:58:05.375Z,0.60
2023-01-11T13:01:02.136Z,0.35
2023-01-11T13:03:56.418Z,0.20
2023-01-11T13:06:31.479Z,0.20
2023-01-11T13:09:06.127Z,0.50
2023-01-11T13:11:45.894Z,0.30
2023-01-11T13:14:30.702Z,0.40
2023-01-11T13:17:07.595Z,0.90
2023-01-11T13:22:39.203Z,0.25
2023-01-11T13:25:18.110Z,0.13
2023-01-11T13:27:48.202Z,0.32
2023-01-11T13:30:20.023Z,1.10
2023-01-11T13:32:54.313Z,0.30
2023-01-11T13:35:34.784Z,0.28
2023-01-11T13:38:10.986Z,0.52
2023-01-11T13:40:47.347Z,0.55
2023-01-11T13:43:21.798Z,0.73
2023-01-11T13:45:53.689Z,0.20
2023-01-11T13:48:27.869Z,0.50
2023-01-11T13:51:04.219Z,0.17
2023-01-11T13:53:40.137Z,0.10
2023-01-11T13:56:15.791Z,0.13
2023-01-11T13:58:51.741Z,0.10
2023-01-11T14:01:23.887Z,0.20
2023-01-11T14:03:57.073Z,0.10
2023-01-11T14:06:44.951Z,0.10
2023-01-11T14:09:30.331Z,0.35
2023-01-11T14:12:04.701Z,0.20
2023-01-11T14:14:50.643Z,0.30
2023-01-11T14:17:31.931Z,0.15
2023-01-11T14:20:11.315Z,0.38
2023-01-11T14:22:49.716Z,0.30
2023-01-11T14:25:23.355Z,0.47
2023-01-11T14:28:15.008Z,0.20
2023-01-11T14:31:02.862Z,0.38
2023-01-11T14:34:08.619Z,0.38
2023-01-11T14:37:11.342Z,0.35
2023-01-11T14:39:57.540Z,0.30
2023-01-11T14:42:47.576Z,0.10
2023-01-11T14:45:27.812Z,0.03
2023-01-11T14:48:20.231Z,0.20
2023-01-11T14:51:10.757Z,0.00
2023-01-11T14:53:43.974Z,0.00
2023-01-11T14:56:45.332Z,0.08
2023-01-11T14:59:27.473Z,0.22
2023-01-11T15:02:28.185Z,0.40
2023-01-11T15:05:35.173Z,0.08
2023-01-11T15:08:24.635Z,0.20
2023-01-11T15:10:57.868Z,0.10
2023-01-11T15:13:29.192Z,0.15
2023-01-11T15:16:27.791Z,0.10
2023-01-11T15:18:57.000Z,0.10
2023-01-11T15:21:27.918Z,0.08
2023-01-11T15:23:58.940Z,0.25
2023-01-11T15:26:28.501Z,0.10
2023-01-11T15:28:58.876Z,0.88
2023-01-11T15:31:39.207Z,0.63
2023-01-11T15:34:23.932Z,0.40
2023-01-11T15:36:55.801Z,0.22
2023-01-11T15:39:34.152Z,0.10
2023-01-11T15:42:33.601Z,0.38
2023-01-11T15:45:31.895Z,0.55
2023-01-11T15:48:20.534Z,1.02
2023-01-11T15:51:13.932Z,1.38
2023-01-11T15:54:14.877Z,0.82
2023-01-11T15:57:02.809Z,1.00
2023-01-11T15:59:51.796Z,0.73
2023-01-11T16:02:43.299Z,1.75
2023-01-11T16:05:22.691Z,1.92
2023-01-11T16:08:08.998Z,1.45
2023-01-11T16:10:52.482Z,1.17
2023-01-11T16:13:33.880Z,1.17
2023-01-11T16:16:11.852Z,1.30
2023-01-11T16:18:45.097Z,0.98
2023-01-11T16:21:21.376Z,1.15
2023-01-11T16:23:50.396Z,1.15
2023-01-11T16:26:21.303Z,0.57
2023-01-11T16:28:51.858Z,0.55
2023-01-11T16:31:20.656Z,0.60
2023-01-11T16:33:50.212Z,0.73
2023-01-11T16:36:22.079Z,0.30
2023-01-11T16:39:01.851Z,0.20
2023-01-11T16:41:33.949Z,1.58
2023-01-11T16:44:05.932Z,1.17
2023-01-11T16:47:07.352Z,0.20
2023-01-11T16:49:35.745Z,1.13
2023-01-11T16:52:37.039Z,0.70
2023-01-11T16:55:17.344Z,0.90
2023-01-11T16:57:48.810Z,0.93
2023-01-11T17:00:38.101Z,1.35
2023-01-11T17:03:25.713Z,2.33
2023-01-11T17:06:13.840Z,3.15
2023-01-11T17:08:44.872Z,2.35
2023-01-11T17:11:24.455Z,2.88
2023-01-11T17:14:14.262Z,1.00
2023-01-11T17:16:45.946Z,1.92
2023-01-11T17:19:17.011Z,0.93
2023-01-11T17:21:49.753Z,1.13
2023-01-11T17:24:24.022Z,1.40
2023-01-11T17:26:55.194Z,1.23
2023-01-11T17:29:29.524Z,0.93
2023-01-11T17:32:00.557Z,0.95
2023-01-11T17:34:32.188Z,1.13
2023-01-11T17:37:01.919Z,0.47
2023-01-11T17:39:34.219Z,0.47
2023-01-11T17:42:23.993Z,0.30
2023-01-11T17:45:13.118Z,0.20
2023-01-11T17:47:43.216Z,0.35
2023-01-11T17:50:23.810Z,0.17
2023-01-11T17:52:55.123Z,0.30
2023-01-11T17:55:26.294Z,0.55
2023-01-11T17:58:12.184Z,0.47
2023-01-11T18:00:42.426Z,0.57
2023-01-11T18:03:14.592Z,0.75
2023-01-11T18:05:44.202Z,0.40
2023-01-11T18:08:20.724Z,0.95
2023-01-11T18:10:55.239Z,1.08
2023-01-11T18:13:28.860Z,0.80
2023-01-11T18:15:57.116Z,0.63
2023-01-11T18:18:42.498Z,0.73
2023-01-11T18:21:48.028Z,1.13
2023-01-11T18:24:29.590Z,0.98
2023-01-11T18:27:15.236Z,1.75
2023-01-11T18:29:51.141Z,2.53
2023-01-11T18:32:20.644Z,1.83
2023-01-11T18:34:52.391Z,2.15
2023-01-11T18:37:21.184Z,1.27
2023-01-11T18:39:50.826Z,3.38
2023-01-11T18:42:25.638Z,2.00
2023-01-11T18:44:54.026Z,1.02
2023-01-11T18:47:23.755Z,1.35
2023-01-11T18:49:53.002Z,1.20
2023-01-11T18:52:24.616Z,1.48
2023-01-11T18:54:53.024Z,1.67
2023-01-11T18:57:23.876Z,1.48
2023-01-11T18:59:53.580Z,1.75
2023-01-11T19:02:24.951Z,2.10
2023-01-11T19:04:54.227Z,1.42
2023-01-11T19:07:24.134Z,1.70
2023-01-11T19:09:54.865Z,1.67
2023-01-11T19:12:25.180Z,1.30
2023-01-11T19:14:53.479Z,1.38
2023-01-11T19:17:21.808Z,1.95
2023-01-11T19:19:49.961Z,2.30
2023-01-11T19:22:18.154Z,2.95
2023-01-11T19:24:46.335Z,3.22
2023-01-11T19:27:15.539Z,2.58
2023-01-11T19:29:45.091Z,1.88
2023-01-11T19:32:14.272Z,1.10
2023-01-11T19:34:42.878Z,2.05
2023-01-11T19:37:11.330Z,1.80
2023-01-11T19:39:40.237Z,1.30
2023-01-11T19:42:08.510Z,1.63
2023-01-11T19:44:38.965Z,1.00
2023-01-11T19:47:13.032Z,1.08
2023-01-11T19:49:42.356Z,0.98
2023-01-11T19:52:14.056Z,1.08
2023-01-11T19:54:43.156Z,1.50
2023-01-11T19:57:12.493Z,0.57
2023-01-11T19:59:40.880Z,1.00
2023-01-11T20:02:11.929Z,0.60
2023-01-11T20:04:40.183Z,1.02
2023-01-11T20:07:08.680Z,0.70
2023-01-11T20:09:38.129Z,0.80
2023-01-11T20:12:06.548Z,0.85
2023-01-11T20:14:35.393Z,0.95
2023-01-11T20:17:03.879Z,0.63
2023-01-11T20:19:33.689Z,1.63
2023-01-11T20:22:02.088Z,1.35
2023-01-11T20:24:30.461Z,0.65
2023-01-11T20:26:59.872Z,2.05
2023-01-11T20:29:28.121Z,0.82
2023-01-11T20:31:58.155Z,0.95
2023-01-11T20:34:31.359Z,1.00
2023-01-11T20:37:00.802Z,1.42
2023-01-11T20:39:29.048Z,1.77
2023-01-11T20:41:57.275Z,1.25
2023-01-11T20:44:27.943Z,1.85
2023-01-11T20:46:57.500Z,1.30
2023-01-11T20:49:28.914Z,1.38
2023-01-11T20:51:57.641Z,0.90
2023-01-11T20:54:27.263Z,1.23
2023-01-11T20:56:58.447Z,0.90
2023-01-11T20:59:27.661Z,0.88
2023-01-11T21:01:55.920Z,0.68
2023-01-11T21:04:24.214Z,1.45
2023-01-11T21:06:52.379Z,0.57
2023-01-11T21:09:20.543Z,1.70
2023-01-11T21:11:53.894Z,1.15
2023-01-11T21:14:22.585Z,0.50
2023-01-11T21:16:50.848Z,0.63
2023-01-11T21:19:19.095Z,0.40
2023-01-11T21:21:49.577Z,1.33
2023-01-11T21:24:18.015Z,0.45
2023-01-11T21:26:48.091Z,0.63
2023-01-11T21:29:17.692Z,0.63
2023-01-11T21:31:45.902Z,0.85
2023-01-11T21:34:16.647Z,0.50
2023-01-11T21:36:45.130Z,0.65
2023-01-11T21:39:14.699Z,1.10
2023-01-11T21:42:01.065Z,0.35
2023-01-11T21:44:33.963Z,0.80
2023-01-11T21:47:04.038Z,0.57
2023-01-11T21:49:32.566Z,0.60
2023-01-11T21:52:01.147Z,0.40
2023-01-11T21:54:29.312Z,1.17
2023-01-11T21:56:57.526Z,0.55
2023-01-11T21:59:25.864Z,0.50
2023-01-11T22:01:55.427Z,0.95
2023-01-11T22:04:23.811Z,1.25
2023-01-11T22:06:54.993Z,0.57
2023-01-11T22:09:28.071Z,1.05
2023-01-11T22:11:56.760Z,1.33
2023-01-11T22:14:25.060Z,0.35
2023-01-11T22:16:55.051Z,0.82
2023-01-11T22:19:23.478Z,0.55
2023-01-11T22:21:51.639Z,0.45
2023-01-11T22:24:20.832Z,0.60
2023-01-11T22:26:49.000Z,0.95
2023-01-11T22:29:17.382Z,1.58
2023-01-11T22:31:48.924Z,0.70
2023-01-11T22:34:19.567Z,0.73
2023-01-11T22:36:48.155Z,0.52
2023-01-11T22:39:19.431Z,0.65
2023-01-11T22:41:47.865Z,0.35
2023-01-11T22:44:16.174Z,0.98
2023-01-11T22:46:45.111Z,0.73
2023-01-11T22:49:14.194Z,0.65
2023-01-11T22:51:44.892Z,0.60
2023-01-11T22:54:13.673Z,0.13
2023-01-11T22:56:42.220Z,1.20
2023-01-11T22:59:10.971Z,0.75
2023-01-11T23:01:40.994Z,0.68
2023-01-11T23:04:12.236Z,0.35
2023-01-11T23:06:41.662Z,0.85
2023-01-11T23:09:16.594Z,0.60
2023-01-11T23:12:03.564Z,1.25
2023-01-11T23:14:33.877Z,0.45
2023-01-11T23:17:05.259Z,0.52
2023-01-11T23:19:34.087Z,0.82
2023-01-11T23:22:02.246Z,0.13
2023-01-11T23:24:31.821Z,0.50
2023-01-11T23:27:00.578Z,0.22
2023-01-11T23:29:28.820Z,0.10
2023-01-11T23:31:57.030Z,0.75
2023-01-11T23:34:25.422Z,0.43
2023-01-11T23:36:53.571Z,0.30
2023-01-11T23:39:23.667Z,0.55
2023-01-11T23:42:10.873Z,0.28
2023-01-11T23:44:39.146Z,0.55
2023-01-11T23:47:24.664Z,0.50
2023-01-11T23:49:54.535Z,0.10
2023-01-11T23:52:25.160Z,0.30
2023-01-11T23:54:53.774Z,0.52
2023-01-11T23:57:25.007Z,0.20
2023-01-11T23:59:53.294Z,0.40
